createdAt,value
2017-07-26T00:00:25.033Z,1014.98
2017-07-26T00:01:25.027Z,1014.98
2017-07-26T00:02:25.025Z,1014.93
2017-07-26T00:03:25.018Z,1014.94
2017-07-26T00:04:25.016Z,1014.94
2017-07-26T00:05:25.014Z,1014.99
2017-07-26T00:06:25.013Z,1014.97
2017-07-26T00:07:25.008Z,1014.95
2017-07-26T00:08:25.004Z,1014.9
2017-07-26T00:09:24.997Z,1014.91
2017-07-26T00:10:24.996Z,1014.9
2017-07-26T00:11:24.991Z,1014.84
2017-07-26T00:12:24.987Z,1014.86
2017-07-26T00:13:24.983Z,1014.85
2017-07-26T00:14:24.983Z,1014.88
2017-07-26T00:15:24.974Z,1014.91
2017-07-26T00:16:24.976Z,1014.89
2017-07-26T00:17:24.971Z,1014.95
2017-07-26T00:18:24.963Z,1014.97
2017-07-26T00:19:24.960Z,1014.99
2017-07-26T00:20:24.959Z,1015
2017-07-26T00:21:24.953Z,1015.02
2017-07-26T00:22:24.949Z,1015.02
2017-07-26T00:23:24.961Z,1014.95
2017-07-26T00:24:24.943Z,1014.94
2017-07-26T00:25:24.940Z,1014.92
2017-07-26T00:26:24.938Z,1014.91
2017-07-26T00:27:24.928Z,1014.86
2017-07-26T00:28:24.926Z,1014.83
2017-07-26T00:29:24.921Z,1014.81
2017-07-26T00:30:24.922Z,1014.8
2017-07-26T00:31:24.915Z,1014.8
2017-07-26T00:32:24.909Z,1014.81
2017-07-26T00:33:24.908Z,1014.82
2017-07-26T00:34:24.903Z,1014.87
2017-07-26T00:35:24.903Z,1014.88
2017-07-26T00:36:24.898Z,1014.93
2017-07-26T00:37:24.891Z,1014.94
2017-07-26T00:38:24.893Z,1014.94
2017-07-26T00:39:24.888Z,1014.97
2017-07-26T00:40:24.882Z,1014.98
2017-07-26T00:41:24.874Z,1014.98
2017-07-26T00:42:24.875Z,1014.95
2017-07-26T00:43:24.873Z,1014.94
2017-07-26T00:44:24.870Z,1014.92
2017-07-26T00:45:24.862Z,1014.9
2017-07-26T00:46:24.860Z,1014.89
2017-07-26T00:47:24.852Z,1014.83
2017-07-26T00:48:24.850Z,1014.84
2017-07-26T00:49:24.847Z,1014.85
2017-07-26T00:50:24.846Z,1014.83
2017-07-26T00:51:24.843Z,1014.84
2017-07-26T00:52:24.834Z,1014.8
2017-07-26T00:53:24.834Z,1014.78
2017-07-26T00:54:24.831Z,1014.78
2017-07-26T00:55:24.826Z,1014.78
2017-07-26T00:56:24.823Z,1014.74
2017-07-26T00:57:24.819Z,1014.76
2017-07-26T00:58:24.817Z,1014.77
2017-07-26T00:59:24.808Z,1014.79
2017-07-26T01:00:24.806Z,1014.75
2017-07-26T01:01:24.799Z,1014.8
2017-07-26T01:02:24.800Z,1014.77
2017-07-26T01:03:24.796Z,1014.84
2017-07-26T01:04:24.793Z,1014.79
2017-07-26T01:05:24.784Z,1014.78
2017-07-26T01:06:24.786Z,1014.81
2017-07-26T01:07:24.778Z,1014.78
2017-07-26T01:08:24.778Z,1014.8
2017-07-26T01:09:24.774Z,1014.76
2017-07-26T01:10:24.769Z,1014.76
2017-07-26T01:11:24.766Z,1014.79
2017-07-26T01:12:24.762Z,1014.79
2017-07-26T01:13:24.759Z,1014.78
2017-07-26T01:14:24.755Z,1014.78
2017-07-26T01:15:24.752Z,1014.75
2017-07-26T01:16:24.747Z,1014.77
2017-07-26T01:17:24.742Z,1014.76
2017-07-26T01:18:24.737Z,1014.8
2017-07-26T01:19:24.736Z,1014.78
2017-07-26T01:20:24.726Z,1014.78
2017-07-26T01:21:24.723Z,1014.77
2017-07-26T01:22:24.724Z,1014.79
2017-07-26T01:23:24.719Z,1014.74
2017-07-26T01:24:24.716Z,1014.74
2017-07-26T01:25:24.709Z,1014.71
2017-07-26T01:26:24.705Z,1014.72
2017-07-26T01:27:24.702Z,1014.72
2017-07-26T01:28:24.695Z,1014.7
2017-07-26T01:29:24.695Z,1014.67
2017-07-26T01:30:24.691Z,1014.63
2017-07-26T01:31:24.689Z,1014.62
2017-07-26T01:32:24.685Z,1014.62
2017-07-26T01:33:24.678Z,1014.66
2017-07-26T01:34:24.678Z,1014.62
2017-07-26T01:35:24.669Z,1014.59
2017-07-26T01:36:24.668Z,1014.59
2017-07-26T01:37:24.662Z,1014.62
2017-07-26T01:38:24.666Z,1014.54
2017-07-26T01:39:24.659Z,1014.5
2017-07-26T01:40:24.654Z,1014.48
2017-07-26T01:41:24.649Z,1014.46
2017-07-26T01:42:24.644Z,1014.43
2017-07-26T01:43:24.644Z,1014.44
2017-07-26T01:44:24.634Z,1014.43
2017-07-26T01:45:24.635Z,1014.43
2017-07-26T01:46:24.629Z,1014.42
2017-07-26T01:47:24.626Z,1014.45
2017-07-26T01:48:24.618Z,1014.49
2017-07-26T01:49:24.618Z,1014.5
2017-07-26T01:50:24.613Z,1014.52
2017-07-26T01:51:24.612Z,1014.54
2017-07-26T01:52:24.608Z,1014.55
2017-07-26T01:53:24.604Z,1014.58
2017-07-26T01:54:24.594Z,1014.58
2017-07-26T01:55:24.590Z,1014.6
2017-07-26T01:56:24.592Z,1014.62
2017-07-26T01:57:24.584Z,1014.66
2017-07-26T01:58:24.581Z,1014.64
2017-07-26T01:59:24.581Z,1014.69
2017-07-26T02:00:24.576Z,1014.67
2017-07-26T02:01:24.573Z,1014.68
2017-07-26T02:02:24.564Z,1014.68
2017-07-26T02:03:24.566Z,1014.73
2017-07-26T02:04:24.555Z,1014.74
2017-07-26T02:05:24.553Z,1014.74
2017-07-26T02:06:24.547Z,1014.76
2017-07-26T02:07:24.549Z,1014.72
2017-07-26T02:08:24.545Z,1014.72
2017-07-26T02:09:24.540Z,1014.69
2017-07-26T02:10:24.533Z,1014.68
2017-07-26T02:11:24.529Z,1014.63
2017-07-26T02:12:24.530Z,1014.63
2017-07-26T02:13:24.524Z,1014.59
2017-07-26T02:14:24.521Z,1014.59
2017-07-26T02:15:24.515Z,1014.55
2017-07-26T02:16:24.511Z,1014.53
2017-07-26T02:17:24.504Z,1014.53
2017-07-26T02:18:24.503Z,1014.53
2017-07-26T02:19:24.497Z,1014.56
2017-07-26T02:20:24.495Z,1014.51
2017-07-26T02:21:24.492Z,1014.53
2017-07-26T02:22:24.489Z,1014.61
2017-07-26T02:23:24.480Z,1014.58
2017-07-26T02:24:24.479Z,1014.55
2017-07-26T02:25:24.474Z,1014.58
2017-07-26T02:26:24.469Z,1014.57
2017-07-26T02:27:24.466Z,1014.58
2017-07-26T02:28:24.471Z,1014.62
2017-07-26T02:29:24.462Z,1014.59
2017-07-26T02:30:24.457Z,1014.58
2017-07-26T02:31:24.451Z,1014.59
2017-07-26T02:32:24.449Z,1014.55
2017-07-26T02:33:24.444Z,1014.55
2017-07-26T02:34:24.441Z,1014.57
2017-07-26T02:35:24.436Z,1014.53
2017-07-26T02:36:24.435Z,1014.57
2017-07-26T02:37:24.427Z,1014.56
2017-07-26T02:38:24.427Z,1014.58
2017-07-26T02:39:24.420Z,1014.61
2017-07-26T02:40:24.419Z,1014.69
2017-07-26T02:41:24.417Z,1014.66
2017-07-26T02:42:24.410Z,1014.68
2017-07-26T02:43:24.406Z,1014.66
2017-07-26T02:44:24.399Z,1014.64
2017-07-26T02:45:24.398Z,1014.63
2017-07-26T02:46:24.393Z,1014.57
2017-07-26T02:47:24.394Z,1014.55
2017-07-26T02:48:24.386Z,1014.53
2017-07-26T02:49:24.380Z,1014.5
2017-07-26T02:50:24.381Z,1014.51
2017-07-26T02:51:24.375Z,1014.51
2017-07-26T02:52:24.374Z,1014.53
2017-07-26T02:53:24.368Z,1014.49
2017-07-26T02:54:24.364Z,1014.5
2017-07-26T02:55:24.359Z,1014.52
2017-07-26T02:56:24.362Z,1014.55
2017-07-26T02:57:24.350Z,1014.53
2017-07-26T02:58:24.349Z,1014.57
2017-07-26T02:59:24.347Z,1014.58
2017-07-26T03:00:24.339Z,1014.58
2017-07-26T03:01:24.334Z,1014.61
2017-07-26T03:02:24.333Z,1014.54
2017-07-26T03:03:24.329Z,1014.58
2017-07-26T03:04:24.322Z,1014.54
2017-07-26T03:05:24.321Z,1014.52
2017-07-26T03:06:24.317Z,1014.48
2017-07-26T03:07:24.323Z,1014.45
2017-07-26T03:08:24.309Z,1014.43
2017-07-26T03:09:24.310Z,1014.38
2017-07-26T03:10:24.302Z,1014.39
2017-07-26T03:11:24.298Z,1014.39
2017-07-26T03:12:24.295Z,1014.41
2017-07-26T03:13:24.292Z,1014.38
2017-07-26T03:14:24.285Z,1014.43
2017-07-26T03:15:24.286Z,1014.42
2017-07-26T03:16:24.277Z,1014.48
2017-07-26T03:17:24.273Z,1014.5
2017-07-26T03:18:24.272Z,1014.51
2017-07-26T03:19:24.269Z,1014.53
2017-07-26T03:20:24.264Z,1014.49
2017-07-26T03:21:24.263Z,1014.46
2017-07-26T03:22:24.253Z,1014.43
2017-07-26T03:23:24.253Z,1014.37
2017-07-26T03:24:24.250Z,1014.31
2017-07-26T03:25:24.245Z,1014.26
2017-07-26T03:26:24.238Z,1014.26
2017-07-26T03:27:24.240Z,1014.24
2017-07-26T03:28:24.236Z,1014.25
2017-07-26T03:29:24.229Z,1014.27
2017-07-26T03:30:24.221Z,1014.26
2017-07-26T03:31:24.220Z,1014.29
2017-07-26T03:32:24.219Z,1014.31
2017-07-26T03:33:24.214Z,1014.32
2017-07-26T03:34:24.211Z,1014.29
2017-07-26T03:35:24.206Z,1014.28
2017-07-26T03:36:24.202Z,1014.27
2017-07-26T03:37:24.195Z,1014.28
2017-07-26T03:38:24.195Z,1014.28
2017-07-26T03:39:24.189Z,1014.27
2017-07-26T03:40:24.185Z,1014.29
2017-07-26T03:41:24.188Z,1014.27
2017-07-26T03:42:24.174Z,1014.27
2017-07-26T03:43:24.176Z,1014.26
2017-07-26T03:44:24.173Z,1014.26
2017-07-26T03:45:24.167Z,1014.23
2017-07-26T03:46:24.160Z,1014.24
2017-07-26T03:47:24.157Z,1014.23
2017-07-26T03:48:24.154Z,1014.25
2017-07-26T03:49:24.155Z,1014.24
2017-07-26T03:50:24.149Z,1014.27
2017-07-26T03:51:24.141Z,1014.27
2017-07-26T03:52:24.139Z,1014.25
2017-07-26T03:53:24.132Z,1014.28
2017-07-26T03:54:24.132Z,1014.27
2017-07-26T03:55:24.125Z,1014.24
2017-07-26T03:56:24.133Z,1014.22
2017-07-26T03:57:24.117Z,1014.18
2017-07-26T03:58:24.116Z,1014.2
2017-07-26T03:59:24.108Z,1014.12
2017-07-26T04:00:24.108Z,1014.09
2017-07-26T04:01:24.103Z,1014.06
2017-07-26T04:02:24.099Z,1014.02
2017-07-26T04:03:24.096Z,1014.01
2017-07-26T04:04:24.094Z,1013.95
2017-07-26T04:05:24.089Z,1013.9
2017-07-26T04:06:24.083Z,1013.9
2017-07-26T04:07:24.082Z,1013.94
2017-07-26T04:08:24.078Z,1013.94
2017-07-26T04:09:24.072Z,1014.01
2017-07-26T04:10:24.072Z,1014.01
2017-07-26T04:11:24.068Z,1014.01
2017-07-26T04:12:24.084Z,1014
2017-07-26T04:13:24.055Z,1014.03
2017-07-26T04:14:24.056Z,1014.02
2017-07-26T04:15:24.050Z,1014
2017-07-26T04:16:24.048Z,1014
2017-07-26T04:17:24.044Z,1013.98
2017-07-26T04:18:24.040Z,1013.96
2017-07-26T04:19:24.037Z,1013.94
2017-07-26T04:20:24.037Z,1013.95
2017-07-26T04:21:24.028Z,1013.93
2017-07-26T04:22:24.028Z,1013.96
2017-07-26T04:23:24.018Z,1013.94
2017-07-26T04:24:24.015Z,1013.89
2017-07-26T04:25:24.013Z,1013.9
2017-07-26T04:26:24.011Z,1013.82
2017-07-26T04:27:24.006Z,1013.8
2017-07-26T04:28:24.004Z,1013.8
2017-07-26T04:29:24.000Z,1013.8
2017-07-26T04:30:23.996Z,1013.74
2017-07-26T04:31:23.992Z,1013.77
2017-07-26T04:32:23.988Z,1013.75
2017-07-26T04:33:23.989Z,1013.78
2017-07-26T04:34:23.980Z,1013.75
2017-07-26T04:35:23.979Z,1013.78
2017-07-26T04:36:23.974Z,1013.71
2017-07-26T04:37:23.970Z,1013.71
2017-07-26T04:38:23.968Z,1013.7
2017-07-26T04:39:23.962Z,1013.69
2017-07-26T04:40:23.956Z,1013.68
2017-07-26T04:41:23.952Z,1013.66
2017-07-26T04:42:23.954Z,1013.67
2017-07-26T04:43:23.950Z,1013.67
2017-07-26T04:44:23.948Z,1013.64
2017-07-26T04:45:23.943Z,1013.62
2017-07-26T04:46:23.937Z,1013.6
2017-07-26T04:47:23.934Z,1013.58
2017-07-26T04:48:23.930Z,1013.55
2017-07-26T04:49:23.930Z,1013.56
2017-07-26T04:50:23.925Z,1013.55
2017-07-26T04:51:23.923Z,1013.49
2017-07-26T04:52:23.916Z,1013.49
2017-07-26T04:53:23.913Z,1013.49
2017-07-26T04:54:23.909Z,1013.48
2017-07-26T04:55:23.911Z,1013.48
2017-07-26T04:56:23.906Z,1013.48
2017-07-26T04:57:23.902Z,1013.45
2017-07-26T04:58:23.900Z,1013.43
2017-07-26T04:59:23.890Z,1013.43
2017-07-26T05:00:23.892Z,1013.38
2017-07-26T05:01:23.883Z,1013.37
2017-07-26T05:02:23.885Z,1013.34
2017-07-26T05:03:23.879Z,1013.35
2017-07-26T05:04:23.874Z,1013.34
2017-07-26T05:05:23.874Z,1013.35
2017-07-26T05:06:23.873Z,1013.31
2017-07-26T05:07:23.869Z,1013.3
2017-07-26T05:08:23.864Z,1013.31
2017-07-26T05:09:23.861Z,1013.35
2017-07-26T05:10:23.858Z,1013.31
2017-07-26T05:11:23.854Z,1013.38
2017-07-26T05:12:23.851Z,1013.37
2017-07-26T05:13:23.847Z,1013.35
2017-07-26T05:14:23.842Z,1013.36
2017-07-26T05:15:23.843Z,1013.3
2017-07-26T05:16:23.838Z,1013.24
2017-07-26T05:17:23.836Z,1013.18
2017-07-26T05:18:23.828Z,1013.14
2017-07-26T05:19:23.826Z,1013.14
2017-07-26T05:20:23.824Z,1013.16
2017-07-26T05:21:23.821Z,1013.1
2017-07-26T05:22:23.823Z,1013.15
2017-07-26T05:23:23.817Z,1013.11
2017-07-26T05:24:23.809Z,1013.05
2017-07-26T05:25:23.810Z,1013.03
2017-07-26T05:26:23.803Z,1012.97
2017-07-26T05:27:23.804Z,1012.93
2017-07-26T05:28:23.797Z,1012.88
2017-07-26T05:29:23.799Z,1012.84
2017-07-26T05:30:23.794Z,1012.77
2017-07-26T05:31:23.791Z,1012.81
2017-07-26T05:32:23.792Z,1012.78
2017-07-26T05:33:23.786Z,1012.77
2017-07-26T05:34:23.783Z,1012.76
2017-07-26T05:35:23.778Z,1012.7
2017-07-26T05:36:23.778Z,1012.67
2017-07-26T05:37:23.776Z,1012.64
2017-07-26T05:38:23.772Z,1012.61
2017-07-26T05:39:23.768Z,1012.6
2017-07-26T05:40:23.764Z,1012.55
2017-07-26T05:41:23.763Z,1012.6
2017-07-26T05:42:23.758Z,1012.59
2017-07-26T05:43:23.759Z,1012.63
2017-07-26T05:44:23.757Z,1012.64
2017-07-26T05:45:23.754Z,1012.62
2017-07-26T05:46:23.751Z,1012.58
2017-07-26T05:47:23.746Z,1012.57
2017-07-26T05:48:23.743Z,1012.54
2017-07-26T05:49:23.739Z,1012.52
2017-07-26T05:50:23.738Z,1012.5
2017-07-26T05:51:23.739Z,1012.43
2017-07-26T05:52:23.734Z,1012.38
2017-07-26T05:53:23.732Z,1012.38
2017-07-26T05:54:23.726Z,1012.34
2017-07-26T05:55:23.723Z,1012.3
2017-07-26T05:56:23.727Z,1012.31
2017-07-26T05:57:23.720Z,1012.21
2017-07-26T05:58:23.720Z,1012.08
2017-07-26T05:59:23.718Z,1011.99
2017-07-26T06:00:23.717Z,1011.88
2017-07-26T06:01:23.712Z,1011.84
2017-07-26T06:02:23.710Z,1011.74
2017-07-26T06:03:23.709Z,1011.61
2017-07-26T06:04:23.709Z,1011.48
2017-07-26T06:05:23.701Z,1011.42
2017-07-26T06:06:23.702Z,1011.35
2017-07-26T06:07:23.697Z,1011.42
2017-07-26T06:08:23.700Z,1011.43
2017-07-26T06:09:23.694Z,1011.53
2017-07-26T06:10:23.697Z,1011.56
2017-07-26T06:11:23.695Z,1011.56
2017-07-26T06:12:23.689Z,1011.61
2017-07-26T06:13:23.692Z,1011.63
2017-07-26T06:14:23.687Z,1011.62
2017-07-26T06:15:23.685Z,1011.66
2017-07-26T06:16:23.693Z,1011.69
2017-07-26T06:17:23.687Z,1011.74
2017-07-26T06:18:23.687Z,1011.79
2017-07-26T06:19:23.682Z,1011.82
2017-07-26T06:20:23.681Z,1011.84
2017-07-26T06:21:23.678Z,1011.89
2017-07-26T06:22:23.676Z,1011.92
2017-07-26T06:23:23.675Z,1011.99
2017-07-26T06:24:23.674Z,1012.04
2017-07-26T06:25:23.675Z,1012.08
2017-07-26T06:26:23.674Z,1012.16
2017-07-26T06:27:23.673Z,1012.21
2017-07-26T06:28:23.670Z,1012.25
2017-07-26T06:29:23.669Z,1012.29
2017-07-26T06:30:23.665Z,1012.39
2017-07-26T06:31:23.664Z,1012.41
2017-07-26T06:32:23.663Z,1012.43
2017-07-26T06:33:23.661Z,1012.48
2017-07-26T06:34:23.661Z,1012.52
2017-07-26T06:35:23.660Z,1012.57
2017-07-26T06:36:23.658Z,1012.66
2017-07-26T06:37:23.657Z,1012.76
2017-07-26T06:38:23.656Z,1012.79
2017-07-26T06:39:23.648Z,1012.78
2017-07-26T06:40:23.647Z,1012.8
2017-07-26T06:41:23.648Z,1012.79
2017-07-26T06:42:23.645Z,1012.77
2017-07-26T06:43:23.645Z,1012.75
2017-07-26T06:44:23.642Z,1012.74
2017-07-26T06:45:23.641Z,1012.72
2017-07-26T06:46:23.636Z,1012.73
2017-07-26T06:47:23.637Z,1012.79
2017-07-26T06:48:23.630Z,1012.74
2017-07-26T06:49:23.634Z,1012.73
2017-07-26T06:50:23.625Z,1012.7
2017-07-26T06:51:23.628Z,1012.67
2017-07-26T06:52:23.626Z,1012.69
2017-07-26T06:53:23.625Z,1012.65
2017-07-26T06:54:23.620Z,1012.64
2017-07-26T06:55:23.624Z,1012.6
2017-07-26T06:56:23.619Z,1012.55
2017-07-26T06:57:23.617Z,1012.53
2017-07-26T06:58:23.613Z,1012.52
2017-07-26T06:59:23.611Z,1012.46
2017-07-26T07:00:23.610Z,1012.51
2017-07-26T07:01:23.608Z,1012.45
2017-07-26T07:02:23.606Z,1012.54
2017-07-26T07:03:23.602Z,1012.51
2017-07-26T07:04:23.601Z,1012.51
2017-07-26T07:05:23.601Z,1012.5
2017-07-26T07:06:23.599Z,1012.49
2017-07-26T07:07:23.594Z,1012.53
2017-07-26T07:08:23.593Z,1012.57
2017-07-26T07:09:23.593Z,1012.56
2017-07-26T07:10:23.590Z,1012.62
2017-07-26T07:11:23.592Z,1012.66
2017-07-26T07:12:23.588Z,1012.67
2017-07-26T07:13:23.587Z,1012.7
2017-07-26T07:14:23.581Z,1012.68
2017-07-26T07:15:23.577Z,1012.63
2017-07-26T07:16:23.578Z,1012.6
2017-07-26T07:17:23.575Z,1012.57
2017-07-26T07:18:23.577Z,1012.53
2017-07-26T07:19:23.570Z,1012.6
2017-07-26T07:20:23.571Z,1012.58
2017-07-26T07:21:23.569Z,1012.62
2017-07-26T07:22:23.568Z,1012.66
2017-07-26T07:23:23.565Z,1012.73
2017-07-26T07:24:23.563Z,1012.68
2017-07-26T07:25:23.563Z,1012.68
2017-07-26T07:26:23.562Z,1012.69
2017-07-26T07:27:23.557Z,1012.72
2017-07-26T07:28:23.551Z,1012.72
2017-07-26T07:29:23.558Z,1012.72
2017-07-26T07:30:23.550Z,1012.75
2017-07-26T07:31:23.546Z,1012.69
2017-07-26T07:32:23.550Z,1012.72
2017-07-26T07:33:23.549Z,1012.72
2017-07-26T07:34:23.545Z,1012.77
2017-07-26T07:35:23.537Z,1012.75
2017-07-26T07:36:23.538Z,1012.84
2017-07-26T07:37:23.540Z,1012.86
2017-07-26T07:38:23.534Z,1012.88
2017-07-26T07:39:23.534Z,1012.86
2017-07-26T07:40:23.530Z,1012.88
2017-07-26T07:41:23.529Z,1012.86
2017-07-26T07:42:23.529Z,1012.86
2017-07-26T07:43:23.523Z,1012.82
2017-07-26T07:44:23.523Z,1012.77
2017-07-26T07:45:23.521Z,1012.82
2017-07-26T07:46:23.515Z,1012.84
2017-07-26T07:47:23.515Z,1012.81
2017-07-26T07:48:23.512Z,1012.77
2017-07-26T07:49:23.511Z,1012.65
2017-07-26T07:50:23.526Z,1012.59
2017-07-26T07:51:23.507Z,1012.49
2017-07-26T07:52:23.505Z,1012.5
2017-07-26T07:53:23.503Z,1012.48
2017-07-26T07:54:23.501Z,1012.51
2017-07-26T07:55:23.495Z,1012.46
2017-07-26T07:56:23.494Z,1012.53
2017-07-26T07:57:23.492Z,1012.49
2017-07-26T07:58:23.487Z,1012.5
2017-07-26T07:59:23.490Z,1012.39
2017-07-26T08:00:23.489Z,1012.36
2017-07-26T08:01:23.484Z,1012.37
2017-07-26T08:02:23.483Z,1012.32
2017-07-26T08:03:23.479Z,1012.28
2017-07-26T08:04:23.479Z,1012.29
2017-07-26T08:05:23.474Z,1012.22
2017-07-26T08:06:23.473Z,1012.18
2017-07-26T08:07:23.469Z,1012.16
2017-07-26T08:08:23.471Z,1012.15
2017-07-26T08:09:23.468Z,1012.08
2017-07-26T08:10:23.466Z,1012.07
2017-07-26T08:11:23.460Z,1012.12
2017-07-26T08:12:23.461Z,1012.16
2017-07-26T08:13:23.457Z,1012.22
2017-07-26T08:14:23.458Z,1012.07
2017-07-26T08:15:23.457Z,1012.08
2017-07-26T08:16:23.455Z,1012.02
2017-07-26T08:17:23.450Z,1012.06
2017-07-26T08:18:23.453Z,1012.13
2017-07-26T08:19:23.450Z,1012.14
2017-07-26T08:20:23.448Z,1012.21
2017-07-26T08:21:23.447Z,1012.2
2017-07-26T08:22:23.449Z,1012.18
2017-07-26T08:23:23.442Z,1012.12
2017-07-26T08:24:23.442Z,1012.2
2017-07-26T08:25:23.448Z,1012.28
2017-07-26T08:26:23.438Z,1012.18
2017-07-26T08:27:23.437Z,1012.24
2017-07-26T08:28:23.434Z,1012.18
2017-07-26T08:29:23.429Z,1012.1
2017-07-26T08:30:23.434Z,1012.14
2017-07-26T08:31:23.428Z,1011.93
2017-07-26T08:32:23.431Z,1011.89
2017-07-26T08:33:23.430Z,1011.9
2017-07-26T08:34:23.425Z,1011.96
2017-07-26T08:35:23.423Z,1011.92
2017-07-26T08:36:23.416Z,1011.71
2017-07-26T08:37:23.416Z,1011.62
2017-07-26T08:38:23.414Z,1011.6
2017-07-26T08:39:23.416Z,1011.52
2017-07-26T08:40:23.413Z,1011.64
2017-07-26T08:41:23.415Z,1011.64
2017-07-26T08:42:23.412Z,1011.67
2017-07-26T08:43:23.412Z,1011.65
2017-07-26T08:44:23.408Z,1011.64
2017-07-26T08:45:23.408Z,1011.77
2017-07-26T08:46:23.405Z,1011.77
2017-07-26T08:47:23.409Z,1011.76
2017-07-26T08:48:23.403Z,1011.62
2017-07-26T08:49:23.402Z,1011.72
2017-07-26T08:50:23.405Z,1011.88
2017-07-26T08:51:23.401Z,1011.79
2017-07-26T08:52:23.396Z,1011.73
2017-07-26T08:53:23.396Z,1011.67
2017-07-26T08:54:23.400Z,1011.75
2017-07-26T08:55:23.397Z,1011.82
2017-07-26T08:56:23.393Z,1011.89
2017-07-26T08:57:23.397Z,1011.91
2017-07-26T08:58:23.395Z,1011.98
2017-07-26T08:59:23.393Z,1012.02
2017-07-26T09:00:23.393Z,1012.13
2017-07-26T09:01:23.395Z,1012.36
2017-07-26T09:02:23.391Z,1012.21
2017-07-26T09:03:23.387Z,1012.23
2017-07-26T09:04:23.387Z,1012.32
2017-07-26T09:05:23.388Z,1012.35
2017-07-26T09:06:23.384Z,1012.3
2017-07-26T09:07:23.381Z,1012.32
2017-07-26T09:08:23.383Z,1012.28
2017-07-26T09:09:23.384Z,1012.31
2017-07-26T09:10:23.382Z,1012.26
2017-07-26T09:11:23.375Z,1012.38
2017-07-26T09:12:23.377Z,1012.52
2017-07-26T09:13:23.378Z,1012.57
2017-07-26T09:14:23.374Z,1012.4
2017-07-26T09:15:23.375Z,1012.34
2017-07-26T09:16:23.370Z,1012.32
2017-07-26T09:17:23.373Z,1012.37
2017-07-26T09:18:23.369Z,1012.37
2017-07-26T09:19:23.368Z,1012.29
2017-07-26T09:20:23.367Z,1012.4
2017-07-26T09:21:23.364Z,1012.59
2017-07-26T09:22:23.362Z,1012.59
2017-07-26T09:23:23.362Z,1012.72
2017-07-26T09:24:23.358Z,1012.68
2017-07-26T09:25:23.359Z,1012.51
2017-07-26T09:26:23.352Z,1012.51
2017-07-26T09:27:23.356Z,1012.44
2017-07-26T09:28:23.353Z,1012.41
2017-07-26T09:29:23.352Z,1012.39
2017-07-26T09:30:23.351Z,1012.47
2017-07-26T09:31:23.350Z,1012.63
2017-07-26T09:32:23.342Z,1012.64
2017-07-26T09:33:23.359Z,1012.67
2017-07-26T09:34:23.341Z,1012.63
2017-07-26T09:35:23.345Z,1012.43
2017-07-26T09:36:23.341Z,1012.44
2017-07-26T09:37:23.341Z,1012.41
2017-07-26T09:38:23.338Z,1012.49
2017-07-26T09:39:23.335Z,1012.44
2017-07-26T09:40:23.330Z,1012.41
2017-07-26T09:41:23.328Z,1012.44
2017-07-26T09:42:23.327Z,1012.57
2017-07-26T09:43:23.332Z,1012.61
2017-07-26T09:44:23.327Z,1012.73
2017-07-26T09:45:23.326Z,1012.76
2017-07-26T09:46:23.322Z,1012.73
2017-07-26T09:47:23.321Z,1012.68
2017-07-26T09:48:23.317Z,1012.64
2017-07-26T09:49:23.317Z,1012.67
2017-07-26T09:50:23.312Z,1012.6
2017-07-26T09:51:23.317Z,1012.7
2017-07-26T09:52:23.315Z,1012.67
2017-07-26T09:53:23.312Z,1012.77
2017-07-26T09:54:23.305Z,1012.88
2017-07-26T09:55:23.311Z,1012.95
2017-07-26T09:56:23.308Z,1012.9
2017-07-26T09:57:23.305Z,1012.87
2017-07-26T09:58:23.303Z,1012.85
2017-07-26T09:59:23.300Z,1012.73
2017-07-26T10:00:23.299Z,1012.79
2017-07-26T10:01:23.297Z,1012.85
2017-07-26T10:02:23.293Z,1012.77
2017-07-26T10:03:23.294Z,1012.67
2017-07-26T10:04:23.293Z,1012.63
2017-07-26T10:05:23.291Z,1012.63
2017-07-26T10:06:23.287Z,1012.63
2017-07-26T10:07:23.285Z,1012.67
2017-07-26T10:08:23.282Z,1012.74
2017-07-26T10:09:23.282Z,1012.76
2017-07-26T10:10:23.275Z,1012.79
2017-07-26T10:11:23.274Z,1012.76
2017-07-26T10:12:23.274Z,1012.79
2017-07-26T10:13:23.275Z,1012.76
2017-07-26T10:14:23.269Z,1012.77
2017-07-26T10:15:23.268Z,1012.82
2017-07-26T10:16:23.269Z,1012.92
2017-07-26T10:17:23.265Z,1012.94
2017-07-26T10:18:23.263Z,1012.92
2017-07-26T10:19:23.259Z,1012.91
2017-07-26T10:20:23.257Z,1012.96
2017-07-26T10:21:23.251Z,1012.99
2017-07-26T10:22:23.251Z,1013.05
2017-07-26T10:23:23.249Z,1013.04
2017-07-26T10:24:23.250Z,1013.01
2017-07-26T10:25:23.245Z,1013.11
2017-07-26T10:26:23.246Z,1013.01
2017-07-26T10:27:23.241Z,1013.03
2017-07-26T10:28:23.240Z,1013.11
2017-07-26T10:29:23.236Z,1013.13
2017-07-26T10:30:23.245Z,1013.26
2017-07-26T10:31:23.234Z,1013.26
2017-07-26T10:32:23.231Z,1013.3
2017-07-26T10:33:23.225Z,1013.27
2017-07-26T10:34:23.231Z,1013.34
2017-07-26T10:35:23.224Z,1013.29
2017-07-26T10:36:23.222Z,1013.31
2017-07-26T10:37:23.215Z,1013.34
2017-07-26T10:38:23.218Z,1013.33
2017-07-26T10:39:23.216Z,1013.34
2017-07-26T10:40:23.212Z,1013.43
2017-07-26T10:41:23.214Z,1013.48
2017-07-26T10:42:23.209Z,1013.56
2017-07-26T10:43:23.210Z,1013.6
2017-07-26T10:44:23.202Z,1013.66
2017-07-26T10:45:23.203Z,1013.65
2017-07-26T10:46:23.198Z,1013.64
2017-07-26T10:47:23.197Z,1013.67
2017-07-26T10:48:23.193Z,1013.67
2017-07-26T10:49:23.191Z,1013.64
2017-07-26T10:50:23.190Z,1013.7
2017-07-26T10:51:23.191Z,1013.75
2017-07-26T10:52:23.182Z,1013.82
2017-07-26T10:53:23.185Z,1013.82
2017-07-26T10:54:23.182Z,1013.86
2017-07-26T10:55:23.178Z,1013.84
2017-07-26T10:56:23.172Z,1013.88
2017-07-26T10:57:23.171Z,1013.9
2017-07-26T10:58:23.173Z,1013.96
2017-07-26T10:59:23.172Z,1013.93
2017-07-26T11:00:23.164Z,1013.82
2017-07-26T11:01:23.165Z,1013.88
2017-07-26T11:02:23.161Z,1013.89
2017-07-26T11:03:23.161Z,1013.82
2017-07-26T11:04:23.155Z,1013.85
2017-07-26T11:05:23.157Z,1013.99
2017-07-26T11:06:23.152Z,1013.98
2017-07-26T11:07:23.151Z,1013.86
2017-07-26T11:08:23.146Z,1013.84
2017-07-26T11:09:23.145Z,1013.91
2017-07-26T11:10:23.146Z,1013.88
2017-07-26T11:11:23.138Z,1013.85
2017-07-26T11:12:23.137Z,1013.82
2017-07-26T11:13:23.135Z,1013.84
2017-07-26T11:14:23.133Z,1013.96
2017-07-26T11:15:23.128Z,1014
2017-07-26T11:16:23.128Z,1014.06
2017-07-26T11:17:23.122Z,1014.13
2017-07-26T11:18:23.123Z,1014.23
2017-07-26T11:19:23.121Z,1014.17
2017-07-26T11:20:23.116Z,1014.17
2017-07-26T11:21:23.121Z,1014.29
2017-07-26T11:22:23.112Z,1014.24
2017-07-26T11:23:23.107Z,1014.23
2017-07-26T11:24:23.105Z,1014.19
2017-07-26T11:25:23.101Z,1014.2
2017-07-26T11:26:23.099Z,1014.29
2017-07-26T11:27:23.101Z,1014.34
2017-07-26T11:28:23.094Z,1014.29
2017-07-26T11:29:23.094Z,1014.28
2017-07-26T11:30:23.092Z,1014.29
2017-07-26T11:31:23.088Z,1014.27
2017-07-26T11:32:23.082Z,1014.23
2017-07-26T11:33:23.082Z,1014.23
2017-07-26T11:34:23.079Z,1014.17
2017-07-26T11:35:23.076Z,1014.12
2017-07-26T11:36:23.071Z,1014.15
2017-07-26T11:37:23.070Z,1014.16
2017-07-26T11:38:23.069Z,1014.15
2017-07-26T11:39:23.071Z,1014.21
2017-07-26T11:40:23.064Z,1014.32
2017-07-26T11:41:23.063Z,1014.24
2017-07-26T11:42:23.057Z,1014.34
2017-07-26T11:43:23.055Z,1014.34
2017-07-26T11:44:23.054Z,1014.4
2017-07-26T11:45:23.049Z,1014.39
2017-07-26T11:46:23.046Z,1014.49
2017-07-26T11:47:23.044Z,1014.57
2017-07-26T11:48:23.039Z,1014.58
2017-07-26T11:49:23.037Z,1014.6
2017-07-26T11:50:23.036Z,1014.67
2017-07-26T11:51:23.035Z,1014.69
2017-07-26T11:52:23.027Z,1014.72
2017-07-26T11:53:23.030Z,1014.8
2017-07-26T11:54:23.020Z,1014.81
2017-07-26T11:57:46.182Z,1014.8
2017-07-26T11:58:46.180Z,1014.72
2017-07-26T11:59:46.180Z,1014.69
2017-07-26T12:00:46.177Z,1014.69
2017-07-26T12:01:46.174Z,1014.63
2017-07-26T12:02:46.169Z,1014.62
2017-07-26T12:03:46.172Z,1014.53
2017-07-26T12:04:46.164Z,1014.51
2017-07-26T12:05:46.163Z,1014.47
2017-07-26T12:06:46.156Z,1014.56
2017-07-26T12:07:46.156Z,1014.57
2017-07-26T12:08:46.153Z,1014.58
2017-07-26T12:09:46.151Z,1014.61
2017-07-26T12:10:46.146Z,1014.67